Aviation Digital Data Service (ADDS)

Output produced by METARs form (1620 UTC 22 September 2019)
found at http://www.aviationweather.gov/metar/data/
 
METAR text: HECA 221600Z 35009KT 9999 SCT025 29/16 Q1012 NOSIG
Conditions at: HECA (CAIRO INTL AIRPO, EG) observed 1600 UTC 22 September 2019
Temperature: 29.0°C (84°F)
Dewpoint: 16.0°C (61°F) [RH = 45%]
Pressure (altimeter): 29.88 inches Hg (1012.0 mb)
Winds: from the N (350 degrees) at 10 MPH (9 knots; 4.6 m/s)
Visibility: 6 or more miles (10+ km)
Ceiling: at least 12,000 feet AGL
Clouds: scattered clouds at 2500 feet AGL
Weather: no significant weather observed at this time

METAR text: HECA 221530Z 34012KT 9999 SCT025 31/16 Q1012 NOSIG
Conditions at: HECA (CAIRO INTL AIRPO, EG) observed 1530 UTC 22 September 2019
Temperature: 31.0°C (88°F)
Dewpoint: 16.0°C (61°F) [RH = 40%]
Pressure (altimeter): 29.88 inches Hg (1012.0 mb)
Winds: from the NNW (340 degrees) at 14 MPH (12 knots; 6.2 m/s)
Visibility: 6 or more miles (10+ km)
Ceiling: at least 12,000 feet AGL
Clouds: scattered clouds at 2500 feet AGL
Weather: no significant weather observed at this time

METAR text: HECA 221500Z 34012KT 9999 SCT025 31/16 Q1012 NOSIG
Conditions at: HECA (CAIRO INTL AIRPO, EG) observed 1500 UTC 22 September 2019
Temperature: 31.0°C (88°F)
Dewpoint: 16.0°C (61°F) [RH = 40%]
Pressure (altimeter): 29.88 inches Hg (1012.0 mb)
Winds: from the NNW (340 degrees) at 14 MPH (12 knots; 6.2 m/s)
Visibility: 6 or more miles (10+ km)
Ceiling: at least 12,000 feet AGL
Clouds: scattered clouds at 2500 feet AGL
Weather: no significant weather observed at this time

METAR text: HECA 221430Z 35012KT 9999 SCT025 31/16 Q1012 NOSIG
Conditions at: HECA (CAIRO INTL AIRPO, EG) observed 1430 UTC 22 September 2019
Temperature: 31.0°C (88°F)
Dewpoint: 16.0°C (61°F) [RH = 40%]
Pressure (altimeter): 29.88 inches Hg (1012.0 mb)
Winds: from the N (350 degrees) at 14 MPH (12 knots; 6.2 m/s)
Visibility: 6 or more miles (10+ km)
Ceiling: at least 12,000 feet AGL
Clouds: scattered clouds at 2500 feet AGL
Weather: no significant weather observed at this time

METAR text: HECA 221400Z 35012KT 9999 SCT025 31/16 Q1012 NOSIG
Conditions at: HECA (CAIRO INTL AIRPO, EG) observed 1400 UTC 22 September 2019
Temperature: 31.0°C (88°F)
Dewpoint: 16.0°C (61°F) [RH = 40%]
Pressure (altimeter): 29.88 inches Hg (1012.0 mb)
Winds: from the N (350 degrees) at 14 MPH (12 knots; 6.2 m/s)
Visibility: 6 or more miles (10+ km)
Ceiling: at least 12,000 feet AGL
Clouds: scattered clouds at 2500 feet AGL
Weather: no significant weather observed at this time

METAR text: HECA 221330Z 32007KT 9999 SCT025 31/16 Q1012 NOSIG
Conditions at: HECA (CAIRO INTL AIRPO, EG) observed 1330 UTC 22 September 2019
Temperature: 31.0°C (88°F)
Dewpoint: 16.0°C (61°F) [RH = 40%]
Pressure (altimeter): 29.88 inches Hg (1012.0 mb)
Winds: from the NW (320 degrees) at 8 MPH (7 knots; 3.6 m/s)
Visibility: 6 or more miles (10+ km)
Ceiling: at least 12,000 feet AGL
Clouds: scattered clouds at 2500 feet AGL
Weather: no significant weather observed at this time

METAR text: HECA 221300Z 32007KT 9999 SCT025 31/16 Q1012 NOSIG
Conditions at: HECA (CAIRO INTL AIRPO, EG) observed 1300 UTC 22 September 2019
Temperature: 31.0°C (88°F)
Dewpoint: 16.0°C (61°F) [RH = 40%]
Pressure (altimeter): 29.88 inches Hg (1012.0 mb)
Winds: from the NW (320 degrees) at 8 MPH (7 knots; 3.6 m/s)
Visibility: 6 or more miles (10+ km)
Ceiling: at least 12,000 feet AGL
Clouds: scattered clouds at 2500 feet AGL
Weather: no significant weather observed at this time

METAR text: HECA 221230Z 01009KT 9999 SCT025 31/16 Q1012 NOSIG
Conditions at: HECA (CAIRO INTL AIRPO, EG) observed 1230 UTC 22 September 2019
Temperature: 31.0°C (88°F)
Dewpoint: 16.0°C (61°F) [RH = 40%]
Pressure (altimeter): 29.88 inches Hg (1012.0 mb)
Winds: from the N (10 degrees) at 10 MPH (9 knots; 4.6 m/s)
Visibility: 6 or more miles (10+ km)
Ceiling: at least 12,000 feet AGL
Clouds: scattered clouds at 2500 feet AGL
Weather: no significant weather observed at this time

METAR text: HECA 221200Z 01009KT 9999 SCT025 31/16 Q1012 NOSIG
Conditions at: HECA (CAIRO INTL AIRPO, EG) observed 1200 UTC 22 September 2019
Temperature: 31.0°C (88°F)
Dewpoint: 16.0°C (61°F) [RH = 40%]
Pressure (altimeter): 29.88 inches Hg (1012.0 mb)
Winds: from the N (10 degrees) at 10 MPH (9 knots; 4.6 m/s)
Visibility: 6 or more miles (10+ km)
Ceiling: at least 12,000 feet AGL
Clouds: scattered clouds at 2500 feet AGL
Weather: no significant weather observed at this time

METAR text: HECA 221130Z 33007KT 9999 SCT025 31/17 Q1013 NOSIG
Conditions at: HECA (CAIRO INTL AIRPO, EG) observed 1130 UTC 22 September 2019
Temperature: 31.0°C (88°F)
Dewpoint: 17.0°C (63°F) [RH = 43%]
Pressure (altimeter): 29.91 inches Hg (1013.0 mb)
Winds: from the NNW (330 degrees) at 8 MPH (7 knots; 3.6 m/s)
Visibility: 6 or more miles (10+ km)
Ceiling: at least 12,000 feet AGL
Clouds: scattered clouds at 2500 feet AGL
Weather: no significant weather observed at this time

METAR text: HECA 221100Z 33007KT 9999 SCT025 31/17 Q1013
Conditions at: HECA (CAIRO INTL AIRPO, EG) observed 1100 UTC 22 September 2019
Temperature: 31.0°C (88°F)
Dewpoint: 17.0°C (63°F) [RH = 43%]
Pressure (altimeter): 29.91 inches Hg (1013.0 mb)
Winds: from the NNW (330 degrees) at 8 MPH (7 knots; 3.6 m/s)
Visibility: 6 or more miles (10+ km)
Ceiling: at least 12,000 feet AGL
Clouds: scattered clouds at 2500 feet AGL
Weather: no significant weather observed at this time

METAR text: HECA 221030Z 34007KT 9999 SCT025 30/17 Q1013 NOSIG
Conditions at: HECA (CAIRO INTL AIRPO, EG) observed 1030 UTC 22 September 2019
Temperature: 30.0°C (86°F)
Dewpoint: 17.0°C (63°F) [RH = 46%]
Pressure (altimeter): 29.91 inches Hg (1013.0 mb)
Winds: from the NNW (340 degrees) at 8 MPH (7 knots; 3.6 m/s)
Visibility: 6 or more miles (10+ km)
Ceiling: at least 12,000 feet AGL
Clouds: scattered clouds at 2500 feet AGL
Weather: no significant weather observed at this time

METAR text: HECA 221000Z 34007KT 9999 SCT025 30/17 Q1013 NOSIG
Conditions at: HECA (CAIRO INTL AIRPO, EG) observed 1000 UTC 22 September 2019
Temperature: 30.0°C (86°F)
Dewpoint: 17.0°C (63°F) [RH = 46%]
Pressure (altimeter): 29.91 inches Hg (1013.0 mb)
Winds: from the NNW (340 degrees) at 8 MPH (7 knots; 3.6 m/s)
Visibility: 6 or more miles (10+ km)
Ceiling: at least 12,000 feet AGL
Clouds: scattered clouds at 2500 feet AGL
Weather: no significant weather observed at this time

METAR text: HECA 220930Z 34009KT 9999 SCT025 29/18 Q1014 NOSIG
Conditions at: HECA (CAIRO INTL AIRPO, EG) observed 0930 UTC 22 September 2019
Temperature: 29.0°C (84°F)
Dewpoint: 18.0°C (64°F) [RH = 52%]
Pressure (altimeter): 29.94 inches Hg (1014.0 mb)
Winds: from the NNW (340 degrees) at 10 MPH (9 knots; 4.6 m/s)
Visibility: 6 or more miles (10+ km)
Ceiling: at least 12,000 feet AGL
Clouds: scattered clouds at 2500 feet AGL
Weather: no significant weather observed at this time

METAR text: HECA 220900Z 34009KT 9999 SCT025 29/18 Q1014 NOSIG
Conditions at: HECA (CAIRO INTL AIRPO, EG) observed 0900 UTC 22 September 2019
Temperature: 29.0°C (84°F)
Dewpoint: 18.0°C (64°F) [RH = 52%]
Pressure (altimeter): 29.94 inches Hg (1014.0 mb)
Winds: from the NNW (340 degrees) at 10 MPH (9 knots; 4.6 m/s)
Visibility: 6 or more miles (10+ km)
Ceiling: at least 12,000 feet AGL
Clouds: scattered clouds at 2500 feet AGL
Weather: no significant weather observed at this time

METAR text: HECA 220830Z 35005KT 9999 SCT025 27/19 Q1014 NOSIG
Conditions at: HECA (CAIRO INTL AIRPO, EG) observed 0830 UTC 22 September 2019
Temperature: 27.0°C (81°F)
Dewpoint: 19.0°C (66°F) [RH = 62%]
Pressure (altimeter): 29.94 inches Hg (1014.0 mb)
Winds: from the N (350 degrees) at 6 MPH (5 knots; 2.6 m/s)
Visibility: 6 or more miles (10+ km)
Ceiling: at least 12,000 feet AGL
Clouds: scattered clouds at 2500 feet AGL
Weather: no significant weather observed at this time

METAR text: HECA 220800Z 35005KT 6000 SCT025 27/19 Q1014 NOSIG
Conditions at: HECA (CAIRO INTL AIRPO, EG) observed 0800 UTC 22 September 2019
Temperature: 27.0°C (81°F)
Dewpoint: 19.0°C (66°F) [RH = 62%]
Pressure (altimeter): 29.94 inches Hg (1014.0 mb)
Winds: from the N (350 degrees) at 6 MPH (5 knots; 2.6 m/s)
Visibility: 4 miles ( 6 km)
Ceiling: at least 12,000 feet AGL
Clouds: scattered clouds at 2500 feet AGL
Weather: no significant weather observed at this time

METAR text: HECA 220730Z 35006KT 6000 SCT025 26/20 Q1015 NOSIG
Conditions at: HECA (CAIRO INTL AIRPO, EG) observed 0730 UTC 22 September 2019
Temperature: 26.0°C (79°F)
Dewpoint: 20.0°C (68°F) [RH = 70%]
Pressure (altimeter): 29.97 inches Hg (1015.0 mb)
Winds: from the N (350 degrees) at 7 MPH (6 knots; 3.1 m/s)
Visibility: 4 miles ( 6 km)
Ceiling: at least 12,000 feet AGL
Clouds: scattered clouds at 2500 feet AGL
Weather: no significant weather observed at this time

METAR text: HECA 220700Z 35006KT 4000 BR SCT025 26/20 Q1015 NOSIG
Conditions at: HECA (CAIRO INTL AIRPO, EG) observed 0700 UTC 22 September 2019
Temperature: 26.0°C (79°F)
Dewpoint: 20.0°C (68°F) [RH = 70%]
Pressure (altimeter): 29.97 inches Hg (1015.0 mb)
Winds: from the N (350 degrees) at 7 MPH (6 knots; 3.1 m/s)
Visibility: 2.49 miles (4.01 km)
Ceiling: at least 12,000 feet AGL
Clouds: scattered clouds at 2500 feet AGL
Weather: BR  (mist)

METAR text: HECA 220630Z 34005KT 4000 BR SCT025 24/20 Q1015 NOSIG
Conditions at: HECA (CAIRO INTL AIRPO, EG) observed 0630 UTC 22 September 2019
Temperature: 24.0°C (75°F)
Dewpoint: 20.0°C (68°F) [RH = 78%]
Pressure (altimeter): 29.97 inches Hg (1015.0 mb)
Winds: from the NNW (340 degrees) at 6 MPH (5 knots; 2.6 m/s)
Visibility: 2.49 miles (4.01 km)
Ceiling: at least 12,000 feet AGL
Clouds: scattered clouds at 2500 feet AGL
Weather: BR  (mist)

METAR text: HECA 220600Z 34005KT 4000 BR SCT025 24/20 Q1014 NOSIG
Conditions at: HECA (CAIRO INTL AIRPO, EG) observed 0600 UTC 22 September 2019
Temperature: 24.0°C (75°F)
Dewpoint: 20.0°C (68°F) [RH = 78%]
Pressure (altimeter): 29.94 inches Hg (1014.0 mb)
Winds: from the NNW (340 degrees) at 6 MPH (5 knots; 2.6 m/s)
Visibility: 2.49 miles (4.01 km)
Ceiling: at least 12,000 feet AGL
Clouds: scattered clouds at 2500 feet AGL
Weather: BR  (mist)

METAR text: HECA 220530Z 31004KT 4000 BR SCT025 24/20 Q1014 NOSIG
Conditions at: HECA (CAIRO INTL AIRPO, EG) observed 0530 UTC 22 September 2019
Temperature: 24.0°C (75°F)
Dewpoint: 20.0°C (68°F) [RH = 78%]
Pressure (altimeter): 29.94 inches Hg (1014.0 mb)
Winds: from the NW (310 degrees) at 5 MPH (4 knots; 2.1 m/s)
Visibility: 2.49 miles (4.01 km)
Ceiling: at least 12,000 feet AGL
Clouds: scattered clouds at 2500 feet AGL
Weather: BR  (mist)

METAR text: HECA 220500Z 31004KT 6000 SCT025 24/20 Q1014 NOSIG
Conditions at: HECA (CAIRO INTL AIRPO, EG) observed 0500 UTC 22 September 2019
Temperature: 24.0°C (75°F)
Dewpoint: 20.0°C (68°F) [RH = 78%]
Pressure (altimeter): 29.94 inches Hg (1014.0 mb)
Winds: from the NW (310 degrees) at 5 MPH (4 knots; 2.1 m/s)
Visibility: 4 miles ( 6 km)
Ceiling: at least 12,000 feet AGL
Clouds: scattered clouds at 2500 feet AGL
Weather: no significant weather observed at this time

METAR text: HECA 220430Z 35006KT 6000 SCT025 23/20 Q1014 NOSIG
Conditions at: HECA (CAIRO INTL AIRPO, EG) observed 0430 UTC 22 September 2019
Temperature: 23.0°C (73°F)
Dewpoint: 20.0°C (68°F) [RH = 83%]
Pressure (altimeter): 29.94 inches Hg (1014.0 mb)
Winds: from the N (350 degrees) at 7 MPH (6 knots; 3.1 m/s)
Visibility: 4 miles ( 6 km)
Ceiling: at least 12,000 feet AGL
Clouds: scattered clouds at 2500 feet AGL
Weather: no significant weather observed at this time

METAR text: HECA 220400Z 35006KT 6000 SCT025 23/20 Q1014 NOSIG
Conditions at: HECA (CAIRO INTL AIRPO, EG) observed 0400 UTC 22 September 2019
Temperature: 23.0°C (73°F)
Dewpoint: 20.0°C (68°F) [RH = 83%]
Pressure (altimeter): 29.94 inches Hg (1014.0 mb)
Winds: from the N (350 degrees) at 7 MPH (6 knots; 3.1 m/s)
Visibility: 4 miles ( 6 km)
Ceiling: at least 12,000 feet AGL
Clouds: scattered clouds at 2500 feet AGL
Weather: no significant weather observed at this time

METAR text: HECA 220330Z 36005KT 6000 SCT025 24/20 Q1014 NOSIG
Conditions at: HECA (CAIRO INTL AIRPO, EG) observed 0330 UTC 22 September 2019
Temperature: 24.0°C (75°F)
Dewpoint: 20.0°C (68°F) [RH = 78%]
Pressure (altimeter): 29.94 inches Hg (1014.0 mb)
Winds: from the N (360 degrees) at 6 MPH (5 knots; 2.6 m/s)
Visibility: 4 miles ( 6 km)
Ceiling: at least 12,000 feet AGL
Clouds: scattered clouds at 2500 feet AGL
Weather: no significant weather observed at this time

METAR text: HECA 220300Z 36005KT 9999 SCT025 24/20 Q1014 NOSIG
Conditions at: HECA (CAIRO INTL AIRPO, EG) observed 0300 UTC 22 September 2019
Temperature: 24.0°C (75°F)
Dewpoint: 20.0°C (68°F) [RH = 78%]
Pressure (altimeter): 29.94 inches Hg (1014.0 mb)
Winds: from the N (360 degrees) at 6 MPH (5 knots; 2.6 m/s)
Visibility: 6 or more miles (10+ km)
Ceiling: at least 12,000 feet AGL
Clouds: scattered clouds at 2500 feet AGL
Weather: no significant weather observed at this time

METAR text: HECA 220230Z 00000KT 9999 SCT025 24/20 Q1013 NOSIG
Conditions at: HECA (CAIRO INTL AIRPO, EG) observed 0230 UTC 22 September 2019
Temperature: 24.0°C (75°F)
Dewpoint: 20.0°C (68°F) [RH = 78%]
Pressure (altimeter): 29.91 inches Hg (1013.0 mb)
Winds: calm
Visibility: 6 or more miles (10+ km)
Ceiling: at least 12,000 feet AGL
Clouds: scattered clouds at 2500 feet AGL
Weather: no significant weather observed at this time

METAR text: HECA 220200Z 00000KT 9999 SCT02 Q1013
Conditions at: HECA (CAIRO INTL AIRPO, EG) observed 0200 UTC 22 September 2019
Temperature: missing
Dewpoint: missing
Pressure (altimeter): 29.91 inches Hg (1013.0 mb)
Winds: calm
Visibility: 6 or more miles (10+ km)
Ceiling: unknown
Clouds: missing
Weather: no significant weather observed at this time

METAR text: HECA 220130Z 36007KT 9999 SCT025 24/20 Q1013 NOSIG
Conditions at: HECA (CAIRO INTL AIRPO, EG) observed 0130 UTC 22 September 2019
Temperature: 24.0°C (75°F)
Dewpoint: 20.0°C (68°F) [RH = 78%]
Pressure (altimeter): 29.91 inches Hg (1013.0 mb)
Winds: from the N (360 degrees) at 8 MPH (7 knots; 3.6 m/s)
Visibility: 6 or more miles (10+ km)
Ceiling: at least 12,000 feet AGL
Clouds: scattered clouds at 2500 feet AGL
Weather: no significant weather observed at this time

METAR text: HECA 220100Z 36007KT 9999 SCT025 24/20 Q1013 NOSIG
Conditions at: HECA (CAIRO INTL AIRPO, EG) observed 0100 UTC 22 September 2019
Temperature: 24.0°C (75°F)
Dewpoint: 20.0°C (68°F) [RH = 78%]
Pressure (altimeter): 29.91 inches Hg (1013.0 mb)
Winds: from the N (360 degrees) at 8 MPH (7 knots; 3.6 m/s)
Visibility: 6 or more miles (10+ km)
Ceiling: at least 12,000 feet AGL
Clouds: scattered clouds at 2500 feet AGL
Weather: no significant weather observed at this time

METAR text: HECA 220030Z 35007KT 9999 SCT025 24/20 Q1013 NOSIG
Conditions at: HECA (CAIRO INTL AIRPO, EG) observed 0030 UTC 22 September 2019
Temperature: 24.0°C (75°F)
Dewpoint: 20.0°C (68°F) [RH = 78%]
Pressure (altimeter): 29.91 inches Hg (1013.0 mb)
Winds: from the N (350 degrees) at 8 MPH (7 knots; 3.6 m/s)
Visibility: 6 or more miles (10+ km)
Ceiling: at least 12,000 feet AGL
Clouds: scattered clouds at 2500 feet AGL
Weather: no significant weather observed at this time

METAR text: HECA 220000Z 35007KT 9999 SCT025 24/20 Q1013 NOSIG
Conditions at: HECA (CAIRO INTL AIRPO, EG) observed 0000 UTC 22 September 2019
Temperature: 24.0°C (75°F)
Dewpoint: 20.0°C (68°F) [RH = 78%]
Pressure (altimeter): 29.91 inches Hg (1013.0 mb)
Winds: from the N (350 degrees) at 8 MPH (7 knots; 3.6 m/s)
Visibility: 6 or more miles (10+ km)
Ceiling: at least 12,000 feet AGL
Clouds: scattered clouds at 2500 feet AGL
Weather: no significant weather observed at this time

METAR text: HECA 212330Z 35007KT 9999 SCT025 24/20 Q1013 NOSIG
Conditions at: HECA (CAIRO INTL AIRPO, EG) observed 2330 UTC 21 September 2019
Temperature: 24.0°C (75°F)
Dewpoint: 20.0°C (68°F) [RH = 78%]
Pressure (altimeter): 29.91 inches Hg (1013.0 mb)
Winds: from the N (350 degrees) at 8 MPH (7 knots; 3.6 m/s)
Visibility: 6 or more miles (10+ km)
Ceiling: at least 12,000 feet AGL
Clouds: scattered clouds at 2500 feet AGL
Weather: no significant weather observed at this time

METAR text: HECA 212300Z 36007KT 99999 SCT025 25/20 Q1013 NOSIG
Conditions at: HECA (CAIRO INTL AIRPO, EG) observed 2300 UTC 21 September 2019
Temperature: 25.0°C (77°F)
Dewpoint: 20.0°C (68°F) [RH = 74%]
Pressure (altimeter): 29.91 inches Hg (1013.0 mb)
Winds: from the N (360 degrees) at 8 MPH (7 knots; 3.6 m/s)
Visibility: 6 or more miles (10+ km)
Ceiling: at least 12,000 feet AGL
Clouds: scattered clouds at 2500 feet AGL
Weather: no significant weather observed at this time

METAR text: HECA 212230Z 36007KT 99999 SCT025 25/20 Q1013 NOSIG
Conditions at: HECA (CAIRO INTL AIRPO, EG) observed 2230 UTC 21 September 2019
Temperature: 25.0°C (77°F)
Dewpoint: 20.0°C (68°F) [RH = 74%]
Pressure (altimeter): 29.91 inches Hg (1013.0 mb)
Winds: from the N (360 degrees) at 8 MPH (7 knots; 3.6 m/s)
Visibility: 6 or more miles (10+ km)
Ceiling: at least 12,000 feet AGL
Clouds: scattered clouds at 2500 feet AGL
Weather: no significant weather observed at this time

METAR text: HECA 212200Z 35006KT CAVOK 25/20 Q1014 NOSIG
Conditions at: HECA (CAIRO INTL AIRPO, EG) observed 2200 UTC 21 September 2019
Temperature: 25.0°C (77°F)
Dewpoint: 20.0°C (68°F) [RH = 74%]
Pressure (altimeter): 29.94 inches Hg (1014.0 mb)
Winds: from the N (350 degrees) at 7 MPH (6 knots; 3.1 m/s)
Visibility: 6 or more miles (10+ km)
Ceiling: ceiling and visibility are OK
Clouds: unknown
Weather: no significant weather observed at this time

METAR text: HECA 212130Z 35008KT CAVOK 25/20 Q1014 NOSIG
Conditions at: HECA (CAIRO INTL AIRPO, EG) observed 2130 UTC 21 September 2019
Temperature: 25.0°C (77°F)
Dewpoint: 20.0°C (68°F) [RH = 74%]
Pressure (altimeter): 29.94 inches Hg (1014.0 mb)
Winds: from the N (350 degrees) at 9 MPH (8 knots; 4.1 m/s)
Visibility: 6 or more miles (10+ km)
Ceiling: ceiling and visibility are OK
Clouds: unknown
Weather: no significant weather observed at this time

METAR text: HECA 212100Z 35007KT CAVOK 25/20 Q1014 NOSIG
Conditions at: HECA (CAIRO INTL AIRPO, EG) observed 2100 UTC 21 September 2019
Temperature: 25.0°C (77°F)
Dewpoint: 20.0°C (68°F) [RH = 74%]
Pressure (altimeter): 29.94 inches Hg (1014.0 mb)
Winds: from the N (350 degrees) at 8 MPH (7 knots; 3.6 m/s)
Visibility: 6 or more miles (10+ km)
Ceiling: ceiling and visibility are OK
Clouds: unknown
Weather: no significant weather observed at this time

METAR text: HECA 212030Z 35008KT CAVOK 25/20 Q1014 NOSIG
Conditions at: HECA (CAIRO INTL AIRPO, EG) observed 2030 UTC 21 September 2019
Temperature: 25.0°C (77°F)
Dewpoint: 20.0°C (68°F) [RH = 74%]
Pressure (altimeter): 29.94 inches Hg (1014.0 mb)
Winds: from the N (350 degrees) at 9 MPH (8 knots; 4.1 m/s)
Visibility: 6 or more miles (10+ km)
Ceiling: ceiling and visibility are OK
Clouds: unknown
Weather: no significant weather observed at this time

METAR text: HECA 212000Z 36009KT CAVOK 25/20 Q1014 NOSIG
Conditions at: HECA (CAIRO INTL AIRPO, EG) observed 2000 UTC 21 September 2019
Temperature: 25.0°C (77°F)
Dewpoint: 20.0°C (68°F) [RH = 74%]
Pressure (altimeter): 29.94 inches Hg (1014.0 mb)
Winds: from the N (360 degrees) at 10 MPH (9 knots; 4.6 m/s)
Visibility: 6 or more miles (10+ km)
Ceiling: ceiling and visibility are OK
Clouds: unknown
Weather: no significant weather observed at this time

METAR text: HECA 211930Z 36009KT CAVOK 26/20 Q1014 NOSIG
Conditions at: HECA (CAIRO INTL AIRPO, EG) observed 1930 UTC 21 September 2019
Temperature: 26.0°C (79°F)
Dewpoint: 20.0°C (68°F) [RH = 70%]
Pressure (altimeter): 29.94 inches Hg (1014.0 mb)
Winds: from the N (360 degrees) at 10 MPH (9 knots; 4.6 m/s)
Visibility: 6 or more miles (10+ km)
Ceiling: ceiling and visibility are OK
Clouds: unknown
Weather: no significant weather observed at this time

METAR text: HECA 211900Z 36010KT CAVOK 26/19 Q1014 NOSIG
Conditions at: HECA (CAIRO INTL AIRPO, EG) observed 1900 UTC 21 September 2019
Temperature: 26.0°C (79°F)
Dewpoint: 19.0°C (66°F) [RH = 65%]
Pressure (altimeter): 29.94 inches Hg (1014.0 mb)
Winds: from the N (360 degrees) at 12 MPH (10 knots; 5.1 m/s)
Visibility: 6 or more miles (10+ km)
Ceiling: ceiling and visibility are OK
Clouds: unknown
Weather: no significant weather observed at this time

METAR text: HECA 211830Z 35010KT CAVOK 27/19 Q1014 NOSIG
Conditions at: HECA (CAIRO INTL AIRPO, EG) observed 1830 UTC 21 September 2019
Temperature: 27.0°C (81°F)
Dewpoint: 19.0°C (66°F) [RH = 62%]
Pressure (altimeter): 29.94 inches Hg (1014.0 mb)
Winds: from the N (350 degrees) at 12 MPH (10 knots; 5.1 m/s)
Visibility: 6 or more miles (10+ km)
Ceiling: ceiling and visibility are OK
Clouds: unknown
Weather: no significant weather observed at this time

METAR text: HECA 211800Z 36010KT CAVOK 27/19 Q1014 NOSIG
Conditions at: HECA (CAIRO INTL AIRPO, EG) observed 1800 UTC 21 September 2019
Temperature: 27.0°C (81°F)
Dewpoint: 19.0°C (66°F) [RH = 62%]
Pressure (altimeter): 29.94 inches Hg (1014.0 mb)
Winds: from the N (360 degrees) at 12 MPH (10 knots; 5.1 m/s)
Visibility: 6 or more miles (10+ km)
Ceiling: ceiling and visibility are OK
Clouds: unknown
Weather: no significant weather observed at this time

METAR text: HECA 211730Z 36011KT CAVOK 28/18 Q1013 NOSIG
Conditions at: HECA (CAIRO INTL AIRPO, EG) observed 1730 UTC 21 September 2019
Temperature: 28.0°C (82°F)
Dewpoint: 18.0°C (64°F) [RH = 55%]
Pressure (altimeter): 29.91 inches Hg (1013.0 mb)
Winds: from the N (360 degrees) at 13 MPH (11 knots; 5.7 m/s)
Visibility: 6 or more miles (10+ km)
Ceiling: ceiling and visibility are OK
Clouds: unknown
Weather: no significant weather observed at this time

METAR text: HECA 211700Z 36012KT CAVOK 29/17 Q1013 NOSIG
Conditions at: HECA (CAIRO INTL AIRPO, EG) observed 1700 UTC 21 September 2019
Temperature: 29.0°C (84°F)
Dewpoint: 17.0°C (63°F) [RH = 48%]
Pressure (altimeter): 29.91 inches Hg (1013.0 mb)
Winds: from the N (360 degrees) at 14 MPH (12 knots; 6.2 m/s)
Visibility: 6 or more miles (10+ km)
Ceiling: ceiling and visibility are OK
Clouds: unknown
Weather: no significant weather observed at this time

METAR text: HECA 211630Z 36011KT CAVOK 29/15 Q1012 NOSIG
Conditions at: HECA (CAIRO INTL AIRPO, EG) observed 1630 UTC 21 September 2019
Temperature: 29.0°C (84°F)
Dewpoint: 15.0°C (59°F) [RH = 43%]
Pressure (altimeter): 29.88 inches Hg (1012.0 mb)
Winds: from the N (360 degrees) at 13 MPH (11 knots; 5.7 m/s)
Visibility: 6 or more miles (10+ km)
Ceiling: ceiling and visibility are OK
Clouds: unknown
Weather: no significant weather observed at this time

METAR text: HECA 211600Z 36012KT CAVOK 30/15 Q1012 NOSIG
Conditions at: HECA (CAIRO INTL AIRPO, EG) observed 1600 UTC 21 September 2019
Temperature: 30.0°C (86°F)
Dewpoint: 15.0°C (59°F) [RH = 40%]
Pressure (altimeter): 29.88 inches Hg (1012.0 mb)
Winds: from the N (360 degrees) at 14 MPH (12 knots; 6.2 m/s)
Visibility: 6 or more miles (10+ km)
Ceiling: ceiling and visibility are OK
Clouds: unknown
Weather: no significant weather observed at this time

METAR text: HECA 211530Z 35012KT CAVOK 31/15 Q1012 NOSIG
Conditions at: HECA (CAIRO INTL AIRPO, EG) observed 1530 UTC 21 September 2019
Temperature: 31.0°C (88°F)
Dewpoint: 15.0°C (59°F) [RH = 38%]
Pressure (altimeter): 29.88 inches Hg (1012.0 mb)
Winds: from the N (350 degrees) at 14 MPH (12 knots; 6.2 m/s)
Visibility: 6 or more miles (10+ km)
Ceiling: ceiling and visibility are OK
Clouds: unknown
Weather: no significant weather observed at this time

METAR text: HECA 211500Z 35013KT CAVOK 32/16 Q1012 NOSIG
Conditions at: HECA (CAIRO INTL AIRPO, EG) observed 1500 UTC 21 September 2019
Temperature: 32.0°C (90°F)
Dewpoint: 16.0°C (61°F) [RH = 38%]
Pressure (altimeter): 29.88 inches Hg (1012.0 mb)
Winds: from the N (350 degrees) at 15 MPH (13 knots; 6.7 m/s)
Visibility: 6 or more miles (10+ km)
Ceiling: ceiling and visibility are OK
Clouds: unknown
Weather: no significant weather observed at this time

METAR text: HECA 211430Z 36013KT CAVOK 32/15 Q1011 NOSIG
Conditions at: HECA (CAIRO INTL AIRPO, EG) observed 1430 UTC 21 September 2019
Temperature: 32.0°C (90°F)
Dewpoint: 15.0°C (59°F) [RH = 36%]
Pressure (altimeter): 29.85 inches Hg (1011.0 mb)
Winds: from the N (360 degrees) at 15 MPH (13 knots; 6.7 m/s)
Visibility: 6 or more miles (10+ km)
Ceiling: ceiling and visibility are OK
Clouds: unknown
Weather: no significant weather observed at this time

METAR text: HECA 211400Z 01011KT CAVOK 33/16 Q1011 NOSIG
Conditions at: HECA (CAIRO INTL AIRPO, EG) observed 1400 UTC 21 September 2019
Temperature: 33.0°C (91°F)
Dewpoint: 16.0°C (61°F) [RH = 36%]
Pressure (altimeter): 29.85 inches Hg (1011.0 mb)
Winds: from the N (10 degrees) at 13 MPH (11 knots; 5.7 m/s)
Visibility: 6 or more miles (10+ km)
Ceiling: ceiling and visibility are OK
Clouds: unknown
Weather: no significant weather observed at this time

METAR text: HECA 211330Z 36013KT CAVOK 33/16 Q1011 NOSIG
Conditions at: HECA (CAIRO INTL AIRPO, EG) observed 1330 UTC 21 September 2019
Temperature: 33.0°C (91°F)
Dewpoint: 16.0°C (61°F) [RH = 36%]
Pressure (altimeter): 29.85 inches Hg (1011.0 mb)
Winds: from the N (360 degrees) at 15 MPH (13 knots; 6.7 m/s)
Visibility: 6 or more miles (10+ km)
Ceiling: ceiling and visibility are OK
Clouds: unknown
Weather: no significant weather observed at this time

METAR text: HECA 211300Z 35011KT CAVOK 32/17 Q1011 NOSIG
Conditions at: HECA (CAIRO INTL AIRPO, EG) observed 1300 UTC 21 September 2019
Temperature: 32.0°C (90°F)
Dewpoint: 17.0°C (63°F) [RH = 41%]
Pressure (altimeter): 29.85 inches Hg (1011.0 mb)
Winds: from the N (350 degrees) at 13 MPH (11 knots; 5.7 m/s)
Visibility: 6 or more miles (10+ km)
Ceiling: ceiling and visibility are OK
Clouds: unknown
Weather: no significant weather observed at this time

METAR text: HECA 211230Z 36011KT CAVOK 32/17 Q1012 NOSIG
Conditions at: HECA (CAIRO INTL AIRPO, EG) observed 1230 UTC 21 September 2019
Temperature: 32.0°C (90°F)
Dewpoint: 17.0°C (63°F) [RH = 41%]
Pressure (altimeter): 29.88 inches Hg (1012.0 mb)
Winds: from the N (360 degrees) at 13 MPH (11 knots; 5.7 m/s)
Visibility: 6 or more miles (10+ km)
Ceiling: ceiling and visibility are OK
Clouds: unknown
Weather: no significant weather observed at this time

METAR text: HECA 211200Z 01010KT CAVOK 32/17 Q1012 NOSIG
Conditions at: HECA (CAIRO INTL AIRPO, EG) observed 1200 UTC 21 September 2019
Temperature: 32.0°C (90°F)
Dewpoint: 17.0°C (63°F) [RH = 41%]
Pressure (altimeter): 29.88 inches Hg (1012.0 mb)
Winds: from the N (10 degrees) at 12 MPH (10 knots; 5.1 m/s)
Visibility: 6 or more miles (10+ km)
Ceiling: ceiling and visibility are OK
Clouds: unknown
Weather: no significant weather observed at this time

METAR text: HECA 211130Z 36012KT CAVOK 32/17 Q1012 NOSIG
Conditions at: HECA (CAIRO INTL AIRPO, EG) observed 1130 UTC 21 September 2019
Temperature: 32.0°C (90°F)
Dewpoint: 17.0°C (63°F) [RH = 41%]
Pressure (altimeter): 29.88 inches Hg (1012.0 mb)
Winds: from the N (360 degrees) at 14 MPH (12 knots; 6.2 m/s)
Visibility: 6 or more miles (10+ km)
Ceiling: ceiling and visibility are OK
Clouds: unknown
Weather: no significant weather observed at this time

METAR text: HECA 211100Z 02011KT CAVOK 31/16 Q1012 NOSIG
Conditions at: HECA (CAIRO INTL AIRPO, EG) observed 1100 UTC 21 September 2019
Temperature: 31.0°C (88°F)
Dewpoint: 16.0°C (61°F) [RH = 40%]
Pressure (altimeter): 29.88 inches Hg (1012.0 mb)
Winds: from the NNE (20 degrees) at 13 MPH (11 knots; 5.7 m/s)
Visibility: 6 or more miles (10+ km)
Ceiling: ceiling and visibility are OK
Clouds: unknown
Weather: no significant weather observed at this time

METAR text: HECA 211030Z 01012KT 6000 FEW025 31/17 Q1013 NOSIG
Conditions at: HECA (CAIRO INTL AIRPO, EG) observed 1030 UTC 21 September 2019
Temperature: 31.0°C (88°F)
Dewpoint: 17.0°C (63°F) [RH = 43%]
Pressure (altimeter): 29.91 inches Hg (1013.0 mb)
Winds: from the N (10 degrees) at 14 MPH (12 knots; 6.2 m/s)
Visibility: 4 miles ( 6 km)
Ceiling: at least 12,000 feet AGL
Clouds: few clouds at 2500 feet AGL
Weather: no significant weather observed at this time

METAR text: HECA 211000Z 36010KT 6000 FEW025 30/17 Q1013 NOSIG
Conditions at: HECA (CAIRO INTL AIRPO, EG) observed 1000 UTC 21 September 2019
Temperature: 30.0°C (86°F)
Dewpoint: 17.0°C (63°F) [RH = 46%]
Pressure (altimeter): 29.91 inches Hg (1013.0 mb)
Winds: from the N (360 degrees) at 12 MPH (10 knots; 5.1 m/s)
Visibility: 4 miles ( 6 km)
Ceiling: at least 12,000 feet AGL
Clouds: few clouds at 2500 feet AGL
Weather: no significant weather observed at this time

METAR text: HECA 210930Z 01010KT 6000 FEW025 30/17 Q1013 NOSIG
Conditions at: HECA (CAIRO INTL AIRPO, EG) observed 0930 UTC 21 September 2019
Temperature: 30.0°C (86°F)
Dewpoint: 17.0°C (63°F) [RH = 46%]
Pressure (altimeter): 29.91 inches Hg (1013.0 mb)
Winds: from the N (10 degrees) at 12 MPH (10 knots; 5.1 m/s)
Visibility: 4 miles ( 6 km)
Ceiling: at least 12,000 feet AGL
Clouds: few clouds at 2500 feet AGL
Weather: no significant weather observed at this time

METAR text: HECA 210900Z 03010KT 6000 FEW025 29/17 Q1013 NOSIG
Conditions at: HECA (CAIRO INTL AIRPO, EG) observed 0900 UTC 21 September 2019
Temperature: 29.0°C (84°F)
Dewpoint: 17.0°C (63°F) [RH = 48%]
Pressure (altimeter): 29.91 inches Hg (1013.0 mb)
Winds: from the NNE (30 degrees) at 12 MPH (10 knots; 5.1 m/s)
Visibility: 4 miles ( 6 km)
Ceiling: at least 12,000 feet AGL
Clouds: few clouds at 2500 feet AGL
Weather: no significant weather observed at this time

METAR text: HECA 210830Z 01008KT 6000 FEW025 28/18 Q1014 NOSIG
Conditions at: HECA (CAIRO INTL AIRPO, EG) observed 0830 UTC 21 September 2019
Temperature: 28.0°C (82°F)
Dewpoint: 18.0°C (64°F) [RH = 55%]
Pressure (altimeter): 29.94 inches Hg (1014.0 mb)
Winds: from the N (10 degrees) at 9 MPH (8 knots; 4.1 m/s)
Visibility: 4 miles ( 6 km)
Ceiling: at least 12,000 feet AGL
Clouds: few clouds at 2500 feet AGL
Weather: no significant weather observed at this time

METAR text: HECA 210800Z 02009KT 6000 FEW025 27/18 Q1014 NOSIG
Conditions at: HECA (CAIRO INTL AIRPO, EG) observed 0800 UTC 21 September 2019
Temperature: 27.0°C (81°F)
Dewpoint: 18.0°C (64°F) [RH = 58%]
Pressure (altimeter): 29.94 inches Hg (1014.0 mb)
Winds: from the NNE (20 degrees) at 10 MPH (9 knots; 4.6 m/s)
Visibility: 4 miles ( 6 km)
Ceiling: at least 12,000 feet AGL
Clouds: few clouds at 2500 feet AGL
Weather: no significant weather observed at this time

METAR text: HECA 210730Z 01008KT 4000 HZ SCT025 27/18 Q1014 NOSIG
Conditions at: HECA (CAIRO INTL AIRPO, EG) observed 0730 UTC 21 September 2019
Temperature: 27.0°C (81°F)
Dewpoint: 18.0°C (64°F) [RH = 58%]
Pressure (altimeter): 29.94 inches Hg (1014.0 mb)
Winds: from the N (10 degrees) at 9 MPH (8 knots; 4.1 m/s)
Visibility: 2.49 miles (4.01 km)
Ceiling: at least 12,000 feet AGL
Clouds: scattered clouds at 2500 feet AGL
Weather: HZ  (haze)

METAR text: HECA 210700Z 01008KT 4000 HZ SCT025 26/18 Q1014 NOSIG
Conditions at: HECA (CAIRO INTL AIRPO, EG) observed 0700 UTC 21 September 2019
Temperature: 26.0°C (79°F)
Dewpoint: 18.0°C (64°F) [RH = 61%]
Pressure (altimeter): 29.94 inches Hg (1014.0 mb)
Winds: from the N (10 degrees) at 9 MPH (8 knots; 4.1 m/s)
Visibility: 2.49 miles (4.01 km)
Ceiling: at least 12,000 feet AGL
Clouds: scattered clouds at 2500 feet AGL
Weather: HZ  (haze)

METAR text: HECA 210630Z 01007KT 4000 HZ SCT025 25/18 Q1014 NOSIG
Conditions at: HECA (CAIRO INTL AIRPO, EG) observed 0630 UTC 21 September 2019
Temperature: 25.0°C (77°F)
Dewpoint: 18.0°C (64°F) [RH = 65%]
Pressure (altimeter): 29.94 inches Hg (1014.0 mb)
Winds: from the N (10 degrees) at 8 MPH (7 knots; 3.6 m/s)
Visibility: 2.49 miles (4.01 km)
Ceiling: at least 12,000 feet AGL
Clouds: scattered clouds at 2500 feet AGL
Weather: HZ  (haze)

METAR text: HECA 210600Z 01007KT 4000 HZ SCT025 25/18 Q1014 NOSIG
Conditions at: HECA (CAIRO INTL AIRPO, EG) observed 0600 UTC 21 September 2019
Temperature: 25.0°C (77°F)
Dewpoint: 18.0°C (64°F) [RH = 65%]
Pressure (altimeter): 29.94 inches Hg (1014.0 mb)
Winds: from the N (10 degrees) at 8 MPH (7 knots; 3.6 m/s)
Visibility: 2.49 miles (4.01 km)
Ceiling: at least 12,000 feet AGL
Clouds: scattered clouds at 2500 feet AGL
Weather: HZ  (haze)

METAR text: HECA 210530Z 01005KT 4000 HZ SCT025 24/18 Q1014 NOSIG
Conditions at: HECA (CAIRO INTL AIRPO, EG) observed 0530 UTC 21 September 2019
Temperature: 24.0°C (75°F)
Dewpoint: 18.0°C (64°F) [RH = 69%]
Pressure (altimeter): 29.94 inches Hg (1014.0 mb)
Winds: from the N (10 degrees) at 6 MPH (5 knots; 2.6 m/s)
Visibility: 2.49 miles (4.01 km)
Ceiling: at least 12,000 feet AGL
Clouds: scattered clouds at 2500 feet AGL
Weather: HZ  (haze)

METAR text: HECA 210500Z 01005KT 4000 HZ SCT025 24/18 Q1014 TEMPO 3000
Conditions at: HECA (CAIRO INTL AIRPO, EG) observed 0500 UTC 21 September 2019
Temperature: 24.0°C (75°F)
Dewpoint: 18.0°C (64°F) [RH = 69%]
Pressure (altimeter): 29.94 inches Hg (1014.0 mb)
Winds: from the N (10 degrees) at 6 MPH (5 knots; 2.6 m/s)
Visibility: 2.49 miles (4.01 km)
Ceiling: at least 12,000 feet AGL
Clouds: scattered clouds at 2500 feet AGL
Weather: HZ  (haze)

METAR text: HECA 210430Z 02004KT 4000 HZ SCT025 23/18 Q1013 TEMPO 3000
Conditions at: HECA (CAIRO INTL AIRPO, EG) observed 0430 UTC 21 September 2019
Temperature: 23.0°C (73°F)
Dewpoint: 18.0°C (64°F) [RH = 73%]
Pressure (altimeter): 29.91 inches Hg (1013.0 mb)
Winds: from the NNE (20 degrees) at 5 MPH (4 knots; 2.1 m/s)
Visibility: 2.49 miles (4.01 km)
Ceiling: at least 12,000 feet AGL
Clouds: scattered clouds at 2500 feet AGL
Weather: HZ  (haze)

Forecast for: HECA (CAIRO INTL AIRPO, EG)
Text: TAF HECA 221100Z 2212/2318 35010KT 9999 SCT025
Forecast period: 1200 UTC 22 September 2019 to 1800 UTC 23 September 2019
Forecast type: FROM: standard forecast or significant change
Winds: from the N (350 degrees) at 12 MPH (10 knots; 5.1 m/s)
Visibility: 6 or more miles 10+ km)
Ceiling: at least 12,000 feet AGL
Clouds: scattered clouds at 2500 feet AGL
Weather: no significant weather forecast for this period
Text: TEMPO 2300/2306 VRB03KT 4000 BR NSC
Forecast period: 0000 to 0600 UTC 23 September 2019
Forecast type: TEMPORARY: The following changes expected for less than half the time period
Winds: variable direction winds at 3 MPH (3 knots; 1.5 m/s)
Visibility: 2.49 miles (4.01 km)
Ceiling: unknown
Clouds: missing
Weather: BR  (mist)